Weather at Katowice-Muchowiec Airfield

Public forecast

Using degrees Celsius for public forecast. Weather courtesy of forecast.io.

Closest aviation weather report (METAR) to Katowice-Muchowiec Airfield

Closest report is Katowice Wojciech Korfanty International Airport, 14.4 nm (26.7 km) N.

2024/06/17 03:00 (retrieved 26 minutes ago)

EPKT 170300Z 06002KT 9999 MIFG NSC 08/07 Q1015

Closest aviation forecast (TAF) to Katowice-Muchowiec Airfield

Forecast is more than 6 hours old.

Closest forecast is Sliač Airport, 96.2 nm (178.1 km) S.

2024/06/16 18:18 (retrieved 9 hours ago)

TAF LZSL 161630Z 1618/1706 VRB02KT 9999 FEW026 SCT034 TEMPO 1622/1706 1500 BCFG SCT006 PROB40 TEMPO 1701/1706 0200 FG BKN002